createdAt,value
2022-10-05T00:01:01.815Z,20.87
2022-10-05T00:03:32.156Z,20.73
2022-10-05T00:05:58.483Z,20.59
2022-10-05T00:08:30.031Z,20.53
2022-10-05T00:10:56.330Z,20.59
2022-10-05T00:13:24.992Z,20.67
2022-10-05T00:15:53.292Z,20.73
2022-10-05T00:18:20.797Z,20.78
2022-10-05T00:20:47.776Z,20.81
2022-10-05T00:23:16.165Z,20.83
2022-10-05T00:25:42.509Z,20.86
2022-10-05T00:28:15.302Z,20.85
2022-10-05T00:30:42.981Z,20.90
2022-10-05T00:33:09.423Z,20.86
2022-10-05T00:35:36.188Z,20.73
2022-10-05T00:38:02.563Z,20.61
2022-10-05T00:40:35.267Z,20.52
2022-10-05T00:43:10.079Z,20.59
2022-10-05T00:45:39.373Z,20.68
2022-10-05T00:48:14.603Z,20.74
2022-10-05T00:50:50.853Z,20.78
2022-10-05T00:53:25.278Z,20.78
2022-10-05T00:55:57.276Z,20.81
2022-10-05T00:58:30.810Z,20.83
2022-10-05T01:01:04.950Z,20.85
2022-10-05T01:03:39.190Z,20.81
2022-10-05T01:06:10.020Z,20.66
2022-10-05T01:08:40.621Z,20.55
2022-10-05T01:11:10.356Z,20.47
2022-10-05T01:13:42.866Z,20.56
2022-10-05T01:16:15.020Z,20.66
2022-10-05T01:18:50.188Z,20.71
2022-10-05T01:21:19.259Z,20.74
2022-10-05T01:23:57.249Z,20.75
2022-10-05T01:26:31.621Z,20.80
2022-10-05T01:29:03.146Z,20.81
2022-10-05T01:31:35.045Z,20.83
2022-10-05T01:34:11.195Z,20.83
2022-10-05T01:36:41.838Z,20.86
2022-10-05T01:39:13.600Z,20.70
2022-10-05T01:41:45.583Z,20.57
2022-10-05T01:44:15.610Z,20.47
2022-10-05T01:46:44.028Z,20.54
2022-10-05T01:49:22.408Z,20.65
2022-10-05T01:51:54.347Z,20.68
2022-10-05T01:54:26.907Z,20.71
2022-10-05T01:56:59.898Z,20.75
2022-10-05T01:59:33.910Z,20.74
2022-10-05T02:02:01.976Z,20.77
2022-10-05T02:05:00.408Z,20.79
2022-10-05T02:07:21.454Z,20.77
2022-10-05T02:09:50.617Z,20.65
2022-10-05T02:12:19.360Z,20.53
2022-10-05T02:14:49.281Z,20.47
2022-10-05T02:17:17.310Z,20.56
2022-10-05T02:19:46.213Z,20.64
2022-10-05T02:22:14.968Z,20.68
2022-10-05T02:24:44.987Z,20.71
2022-10-05T02:27:14.886Z,20.74
2022-10-05T02:29:45.029Z,20.75
2022-10-05T02:32:15.258Z,20.76
2022-10-05T02:34:42.350Z,20.79
2022-10-05T02:37:16.950Z,20.77
2022-10-05T02:39:47.424Z,20.74
2022-10-05T02:42:20.195Z,20.60
2022-10-05T02:44:55.327Z,20.51
2022-10-05T02:47:26.128Z,20.44
2022-10-05T02:49:57.789Z,20.55
2022-10-05T02:52:26.692Z,20.60
2022-10-05T02:54:59.457Z,20.68
2022-10-05T02:57:28.245Z,20.70
2022-10-05T02:59:58.006Z,20.71
2022-10-05T03:02:28.487Z,20.72
2022-10-05T03:05:00.808Z,20.74
2022-10-05T03:07:29.039Z,20.76
2022-10-05T03:10:01.056Z,20.76
2022-10-05T03:12:33.672Z,20.65
2022-10-05T03:15:03.380Z,20.53
2022-10-05T03:17:34.666Z,20.46
2022-10-05T03:20:11.856Z,20.57
2022-10-05T03:22:46.690Z,20.64
2022-10-05T03:25:21.450Z,20.67
2022-10-05T03:27:52.153Z,20.71
2022-10-05T03:30:19.659Z,20.73
2022-10-05T03:32:52.115Z,20.75
2022-10-05T03:35:22.336Z,20.75
2022-10-05T03:37:51.507Z,20.78
2022-10-05T03:40:24.829Z,20.79
2022-10-05T03:42:56.360Z,20.69
2022-10-05T03:45:27.481Z,20.57
2022-10-05T03:48:01.582Z,20.48
2022-10-05T03:50:33.907Z,20.57
2022-10-05T03:53:03.697Z,20.64
2022-10-05T03:55:33.737Z,20.69
2022-10-05T03:58:18.229Z,20.71
2022-10-05T04:00:46.792Z,20.77
2022-10-05T04:03:18.754Z,20.77
2022-10-05T04:05:47.895Z,20.78
2022-10-05T04:08:18.271Z,20.80
2022-10-05T04:10:48.127Z,20.75
2022-10-05T04:13:18.357Z,20.62
2022-10-05T04:15:48.199Z,20.51
2022-10-05T04:18:20.719Z,20.54
2022-10-05T04:20:49.703Z,20.65
2022-10-05T04:23:19.645Z,20.71
2022-10-05T04:25:48.515Z,20.75
2022-10-05T04:28:17.851Z,20.78
2022-10-05T04:30:45.869Z,20.81
2022-10-05T04:33:12.349Z,20.83
2022-10-05T04:35:54.061Z,20.82
2022-10-05T04:38:26.803Z,20.83
2022-10-05T04:40:59.559Z,20.78
2022-10-05T04:43:32.704Z,20.63
2022-10-05T04:46:05.856Z,20.54
2022-10-05T04:48:46.604Z,20.47
2022-10-05T04:51:25.117Z,20.61
2022-10-05T04:53:54.105Z,20.67
2022-10-05T04:56:27.763Z,20.71
2022-10-05T04:59:01.247Z,20.76
2022-10-05T05:01:37.739Z,20.78
2022-10-05T05:04:13.911Z,20.78
2022-10-05T05:06:46.803Z,20.81
2022-10-05T05:09:28.223Z,20.83
2022-10-05T05:12:02.700Z,20.75
2022-10-05T05:14:38.523Z,20.58
2022-10-05T05:17:13.499Z,20.49
2022-10-05T05:19:45.200Z,20.48
2022-10-05T05:22:16.661Z,20.64
2022-10-05T05:24:49.969Z,20.45
2022-10-05T05:27:27.245Z,20.32
2022-10-05T05:29:59.351Z,20.26
2022-10-05T05:32:34.203Z,20.18
2022-10-05T05:35:06.206Z,20.18
2022-10-05T05:37:36.385Z,20.39
2022-10-05T05:40:06.016Z,20.48
2022-10-05T05:42:38.089Z,20.55
2022-10-05T05:45:07.971Z,20.53
2022-10-05T05:47:35.355Z,20.40
2022-10-05T05:50:09.747Z,20.30
2022-10-05T05:52:41.003Z,20.36
2022-10-05T05:55:13.327Z,20.42
2022-10-05T05:57:41.996Z,20.47
2022-10-05T06:00:16.007Z,20.50
2022-10-05T06:02:46.198Z,20.53
2022-10-05T06:05:23.433Z,20.56
2022-10-05T06:07:52.862Z,20.54
2022-10-05T06:10:25.096Z,20.56
2022-10-05T06:12:56.429Z,20.46
2022-10-05T06:15:29.769Z,20.35
2022-10-05T06:17:58.701Z,20.33
2022-10-05T06:20:27.296Z,20.37
2022-10-05T06:22:57.693Z,20.39
2022-10-05T06:25:30.296Z,20.45
2022-10-05T06:27:59.877Z,20.52
2022-10-05T06:30:30.259Z,20.49
2022-10-05T06:33:04.998Z,20.56
2022-10-05T06:35:39.200Z,20.59
2022-10-05T06:38:14.640Z,20.43
2022-10-05T06:40:47.432Z,20.44
2022-10-05T06:43:20.723Z,20.36
2022-10-05T06:45:54.343Z,20.30
2022-10-05T06:48:27.065Z,20.40
2022-10-05T06:50:56.560Z,20.45
2022-10-05T06:53:31.313Z,20.54
2022-10-05T06:56:01.137Z,20.57
2022-10-05T06:58:37.334Z,20.60
2022-10-05T07:01:07.791Z,20.65
2022-10-05T07:03:40.758Z,20.67
2022-10-05T07:06:11.256Z,20.66
2022-10-05T07:08:46.315Z,20.53
2022-10-05T07:11:20.450Z,20.41
2022-10-05T07:13:56.451Z,20.36
2022-10-05T07:16:29.153Z,20.45
2022-10-05T07:19:04.347Z,20.45
2022-10-05T07:21:34.656Z,20.53
2022-10-05T07:24:11.028Z,20.56
2022-10-05T07:26:41.120Z,20.52
2022-10-05T07:29:15.370Z,20.52
2022-10-05T07:31:45.111Z,20.46
2022-10-05T07:34:19.466Z,20.44
2022-10-05T07:36:54.556Z,20.41
2022-10-05T07:39:42.038Z,20.45
2022-10-05T07:42:20.788Z,20.37
2022-10-05T07:44:51.777Z,20.40
2022-10-05T07:47:23.487Z,20.45
2022-10-05T07:49:53.472Z,20.41
2022-10-05T07:52:23.595Z,20.35
2022-10-05T07:54:57.495Z,20.34
2022-10-05T07:57:28.297Z,20.31
2022-10-05T07:59:57.648Z,20.39
2022-10-05T08:02:26.874Z,20.39
2022-10-05T08:04:55.983Z,20.34
2022-10-05T08:09:58.813Z,20.28
2022-10-05T08:12:30.205Z,20.31
2022-10-05T08:14:57.716Z,20.35
2022-10-05T08:17:30.468Z,20.30
2022-10-05T08:20:02.889Z,20.40
2022-10-05T08:22:31.739Z,20.73
2022-10-05T08:25:01.781Z,20.60
2022-10-05T08:27:32.966Z,20.56
2022-10-05T08:30:00.425Z,20.56
2022-10-05T08:32:29.211Z,20.51
2022-10-05T08:34:58.889Z,20.52
2022-10-05T08:37:26.872Z,20.60
2022-10-05T08:39:56.663Z,20.75
2022-10-05T08:42:37.353Z,20.85
2022-10-05T08:45:21.314Z,20.95
2022-10-05T08:48:02.513Z,21.00
2022-10-05T08:50:34.825Z,21.11
2022-10-05T08:53:17.708Z,21.09
2022-10-05T08:55:50.943Z,20.91
2022-10-05T08:58:26.814Z,20.84
2022-10-05T09:00:59.584Z,20.81
2022-10-05T09:03:35.444Z,20.79
2022-10-05T09:06:18.670Z,20.73
2022-10-05T09:08:52.418Z,20.78
2022-10-05T09:11:23.920Z,20.81
2022-10-05T09:13:59.151Z,20.62
2022-10-05T09:16:40.394Z,20.68
2022-10-05T09:19:21.655Z,20.80
2022-10-05T09:21:56.277Z,20.89
2022-10-05T09:24:26.968Z,20.94
2022-10-05T09:26:59.921Z,20.96
2022-10-05T09:29:40.049Z,21.07
2022-10-05T09:32:18.819Z,21.04
2022-10-05T09:34:52.534Z,20.87
2022-10-05T09:37:33.762Z,20.82
2022-10-05T09:40:14.928Z,20.72
2022-10-05T09:42:49.137Z,20.61
2022-10-05T09:45:27.410Z,20.65
2022-10-05T09:48:10.393Z,20.71
2022-10-05T09:50:52.040Z,20.61
2022-10-05T09:53:32.644Z,20.63
2022-10-05T09:56:09.622Z,20.60
2022-10-05T09:58:49.965Z,20.55
2022-10-05T10:01:33.493Z,20.57
2022-10-05T10:04:15.383Z,20.55
2022-10-05T10:06:54.528Z,20.61
2022-10-05T10:09:27.874Z,20.63
2022-10-05T10:12:06.291Z,20.62
2022-10-05T10:14:53.266Z,20.67
2022-10-05T10:17:32.247Z,20.79
2022-10-05T10:20:07.204Z,20.86
2022-10-05T10:22:46.334Z,20.96
2022-10-05T10:25:20.130Z,20.96
2022-10-05T10:27:57.514Z,20.95
2022-10-05T10:30:37.174Z,20.94
2022-10-05T10:33:19.368Z,20.99
2022-10-05T10:35:50.500Z,21.02
2022-10-05T10:38:22.869Z,20.94
2022-10-05T10:41:00.690Z,20.76
2022-10-05T10:43:35.532Z,20.64
2022-10-05T10:46:10.489Z,20.66
2022-10-05T10:48:48.566Z,20.64
2022-10-05T10:51:17.940Z,20.67
2022-10-05T10:53:55.256Z,20.66
2022-10-05T10:56:28.760Z,20.57
2022-10-05T10:59:14.141Z,20.60
2022-10-05T11:01:50.057Z,20.60
2022-10-05T11:04:24.281Z,20.65
2022-10-05T11:07:10.755Z,20.85
2022-10-05T11:09:50.099Z,20.91
2022-10-05T11:12:34.732Z,20.86
2022-10-05T11:15:04.160Z,20.81
2022-10-05T11:17:44.583Z,20.78
2022-10-05T11:20:22.212Z,20.80
2022-10-05T11:22:58.747Z,20.81
2022-10-05T11:25:32.238Z,20.84
2022-10-05T11:28:03.859Z,20.78
2022-10-05T11:30:41.432Z,20.79
2022-10-05T11:33:29.461Z,20.78
2022-10-05T11:36:00.463Z,20.77
2022-10-05T11:38:35.233Z,20.76
2022-10-05T11:41:11.801Z,20.85
2022-10-05T11:43:49.106Z,20.85
2022-10-05T11:46:18.560Z,20.76
2022-10-05T11:48:51.635Z,20.71
2022-10-05T11:51:28.910Z,20.73
2022-10-05T11:54:01.954Z,20.79
2022-10-05T11:56:31.242Z,20.77
2022-10-05T11:59:01.656Z,20.78
2022-10-05T12:01:29.867Z,20.74
2022-10-05T12:04:05.121Z,20.76
2022-10-05T12:06:41.775Z,20.77
2022-10-05T12:09:17.000Z,20.78
2022-10-05T12:11:56.896Z,20.71
2022-10-05T12:14:30.356Z,20.63
2022-10-05T12:17:00.436Z,20.62
2022-10-05T12:19:31.313Z,20.68
2022-10-05T12:22:01.162Z,20.70
2022-10-05T12:24:30.311Z,20.71
2022-10-05T12:27:00.843Z,20.73
2022-10-05T12:29:30.203Z,20.72
2022-10-05T12:31:59.758Z,20.74
2022-10-05T12:34:35.194Z,20.65
2022-10-05T12:37:05.035Z,20.64
2022-10-05T12:39:36.619Z,20.60
2022-10-05T12:42:09.599Z,20.53
2022-10-05T12:44:43.860Z,20.52
2022-10-05T12:47:16.577Z,20.57
2022-10-05T12:49:53.008Z,20.59
2022-10-05T12:52:28.077Z,20.62
2022-10-05T12:54:57.469Z,20.59
2022-10-05T12:57:30.058Z,20.60
2022-10-05T13:00:02.352Z,20.59
2022-10-05T13:02:32.120Z,20.53
2022-10-05T13:05:06.783Z,20.49
2022-10-05T13:07:41.040Z,20.52
2022-10-05T13:10:15.495Z,20.47
2022-10-05T13:12:46.297Z,20.53
2022-10-05T13:15:19.030Z,20.52
2022-10-05T13:17:49.930Z,20.63
2022-10-05T13:20:21.518Z,20.62
2022-10-05T13:22:52.814Z,20.55
2022-10-05T13:25:23.596Z,20.51
2022-10-05T13:27:55.677Z,20.51
2022-10-05T13:30:22.052Z,20.51
2022-10-05T13:32:52.949Z,20.47
2022-10-05T13:35:27.530Z,20.42
2022-10-05T13:37:59.694Z,20.39
2022-10-05T13:40:31.653Z,20.45
2022-10-05T13:43:00.701Z,20.43
2022-10-05T13:45:29.337Z,20.35
2022-10-05T13:48:03.072Z,20.40
2022-10-05T13:50:33.601Z,20.43
2022-10-05T13:53:05.651Z,20.46
2022-10-05T13:55:37.035Z,20.43
2022-10-05T13:58:07.250Z,20.45
2022-10-05T14:00:37.434Z,20.45
2022-10-05T14:03:23.417Z,20.37
2022-10-05T14:05:55.851Z,20.35
2022-10-05T14:08:25.243Z,20.38
2022-10-05T14:10:51.571Z,20.34
2022-10-05T14:13:20.612Z,20.35
2022-10-05T14:15:57.626Z,20.36
2022-10-05T14:18:24.829Z,20.34
2022-10-05T14:21:01.605Z,20.39
2022-10-05T14:23:28.751Z,20.42
2022-10-05T14:25:55.702Z,20.40
2022-10-05T14:28:24.486Z,20.31
2022-10-05T14:30:59.029Z,20.29
2022-10-05T14:33:27.015Z,20.39
2022-10-05T14:35:54.851Z,20.46
2022-10-05T14:38:23.957Z,20.51
2022-10-05T14:41:05.140Z,20.52
2022-10-05T14:43:32.528Z,20.56
2022-10-05T14:45:59.603Z,20.61
2022-10-05T14:48:27.136Z,20.60
2022-10-05T14:50:55.427Z,20.58
2022-10-05T14:53:24.147Z,20.47
2022-10-05T14:56:03.630Z,20.41
2022-10-05T14:58:37.549Z,20.40
2022-10-05T15:01:13.612Z,20.42
2022-10-05T15:03:45.575Z,20.45
2022-10-05T15:06:15.927Z,20.47
2022-10-05T15:08:51.403Z,20.51
2022-10-05T15:11:25.769Z,20.51
2022-10-05T15:13:52.599Z,20.54
2022-10-05T15:16:21.334Z,20.53
2022-10-05T15:18:51.450Z,20.52
2022-10-05T15:21:27.662Z,20.43
2022-10-05T15:23:57.348Z,20.34
2022-10-05T15:26:29.685Z,20.37
2022-10-05T15:29:00.021Z,20.44
2022-10-05T15:31:30.710Z,20.49
2022-10-05T15:34:00.393Z,20.56
2022-10-05T15:36:33.602Z,20.54
2022-10-05T15:39:03.725Z,20.58
2022-10-05T15:41:40.447Z,20.57
2022-10-05T15:44:14.347Z,20.57
2022-10-05T15:46:45.642Z,20.43
2022-10-05T15:49:18.360Z,20.35
2022-10-05T15:51:51.768Z,20.41
2022-10-05T15:54:25.212Z,20.45
2022-10-05T15:56:56.115Z,20.48
2022-10-05T15:59:25.785Z,20.50
2022-10-05T16:01:54.251Z,20.48
2022-10-05T16:04:23.297Z,20.48
2022-10-05T16:06:50.673Z,20.53
2022-10-05T16:09:24.053Z,20.53
2022-10-05T16:11:56.189Z,20.53
2022-10-05T16:14:28.993Z,20.47
2022-10-05T16:17:00.183Z,20.34
2022-10-05T16:19:29.477Z,20.27
2022-10-05T16:22:01.450Z,20.34
2022-10-05T16:24:40.890Z,20.38
2022-10-05T16:27:14.072Z,20.43
2022-10-05T16:29:44.165Z,20.46
2022-10-05T16:32:13.614Z,20.47
2022-10-05T16:34:48.757Z,20.45
2022-10-05T16:37:19.615Z,20.44
2022-10-05T16:39:49.989Z,20.47
2022-10-05T16:42:25.763Z,20.43
2022-10-05T16:44:55.932Z,20.27
2022-10-05T16:47:28.567Z,20.28
2022-10-05T16:50:01.624Z,20.34
2022-10-05T16:52:28.749Z,20.38
2022-10-05T16:54:57.283Z,20.42
2022-10-05T16:57:27.800Z,20.43
2022-10-05T17:00:00.459Z,20.52
2022-10-05T17:02:35.005Z,20.49
2022-10-05T17:05:10.044Z,20.50
2022-10-05T17:07:42.065Z,20.50
2022-10-05T17:10:20.227Z,20.32
2022-10-05T17:12:57.859Z,20.23
2022-10-05T17:15:30.739Z,20.33
2022-10-05T17:18:04.847Z,20.40
2022-10-05T17:20:46.032Z,20.42
2022-10-05T17:23:26.467Z,20.45
2022-10-05T17:25:54.667Z,20.42
2022-10-05T17:28:24.669Z,20.46
2022-10-05T17:31:06.578Z,20.47
2022-10-05T17:33:33.893Z,20.45
2022-10-05T17:36:12.036Z,20.33
2022-10-05T17:38:46.265Z,20.24
2022-10-05T17:41:17.516Z,20.27
2022-10-05T17:43:58.679Z,20.32
2022-10-05T17:46:38.503Z,20.35
2022-10-05T17:49:17.979Z,20.36
2022-10-05T17:51:57.804Z,20.39
2022-10-05T17:54:25.512Z,20.39
2022-10-05T17:57:06.685Z,20.40
2022-10-05T17:59:38.465Z,20.41
2022-10-05T18:02:17.876Z,20.34
2022-10-05T18:04:50.850Z,20.21
2022-10-05T18:07:19.103Z,20.21
2022-10-05T18:09:57.775Z,20.26
2022-10-05T18:12:27.053Z,20.33
2022-10-05T18:14:55.846Z,20.32
2022-10-05T18:17:37.041Z,20.32
2022-10-05T18:20:11.752Z,20.34
2022-10-05T18:22:38.764Z,20.37
2022-10-05T18:25:09.054Z,20.33
2022-10-05T18:27:49.382Z,20.23
2022-10-05T18:30:19.083Z,20.16
2022-10-05T18:33:00.271Z,20.21
2022-10-05T18:35:32.851Z,20.26
2022-10-05T18:38:03.027Z,20.31
2022-10-05T18:40:36.914Z,20.32
2022-10-05T18:43:09.861Z,20.31
2022-10-05T18:45:41.523Z,20.29
2022-10-05T18:48:17.033Z,20.32
2022-10-05T18:50:48.404Z,20.32
2022-10-05T18:53:21.251Z,20.33
2022-10-05T18:55:53.240Z,20.21
2022-10-05T18:58:22.234Z,20.10
2022-10-05T19:01:03.513Z,20.14
2022-10-05T19:03:35.197Z,20.21
2022-10-05T19:06:12.867Z,20.20
2022-10-05T19:08:45.723Z,20.21
2022-10-05T19:11:17.438Z,20.22
2022-10-05T19:13:48.362Z,20.23
2022-10-05T19:16:20.075Z,20.30
2022-10-05T19:18:55.312Z,20.26
2022-10-05T19:21:28.484Z,20.23
2022-10-05T19:24:03.404Z,20.11
2022-10-05T19:26:41.135Z,20.10
2022-10-05T19:29:19.340Z,20.14
2022-10-05T19:31:48.771Z,20.21
2022-10-05T19:34:22.723Z,20.20
2022-10-05T19:36:56.994Z,20.19
2022-10-05T19:39:28.694Z,20.20
2022-10-05T19:42:04.882Z,20.24
2022-10-05T19:44:37.618Z,20.22
2022-10-05T19:47:06.728Z,20.13
2022-10-05T19:49:35.181Z,20.08
2022-10-05T19:52:08.452Z,20.10
2022-10-05T19:54:34.853Z,20.12
2022-10-05T19:57:08.009Z,20.14
2022-10-05T19:59:34.337Z,20.16
2022-10-05T20:02:00.814Z,20.18
2022-10-05T20:04:31.689Z,20.18
2022-10-05T20:06:58.691Z,20.16
2022-10-05T20:09:26.381Z,20.09
2022-10-05T20:11:53.032Z,20.02
2022-10-05T20:14:20.179Z,20.06
2022-10-05T20:16:46.561Z,20.09
2022-10-05T20:19:27.761Z,20.09
2022-10-05T20:21:54.872Z,20.12
2022-10-05T20:24:21.879Z,20.14
2022-10-05T20:26:50.961Z,20.15
2022-10-05T20:29:17.402Z,20.15
2022-10-05T20:31:43.762Z,20.15
2022-10-05T20:34:10.207Z,20.16
2022-10-05T20:36:36.558Z,20.17
2022-10-05T20:39:02.920Z,20.09
2022-10-05T20:41:29.267Z,20.02
2022-10-05T20:43:56.856Z,20.06
2022-10-05T20:46:23.292Z,20.09
2022-10-05T20:48:49.623Z,20.10
2022-10-05T20:51:15.964Z,20.11
2022-10-05T20:53:42.308Z,20.12
2022-10-05T20:56:08.619Z,20.13
2022-10-05T20:58:34.935Z,20.13
2022-10-05T21:01:02.849Z,20.14
2022-10-05T21:03:29.243Z,20.09
2022-10-05T21:05:55.670Z,19.98
2022-10-05T21:08:22.003Z,19.98
2022-10-05T21:10:48.340Z,20.02
2022-10-05T21:13:14.639Z,20.05
2022-10-05T21:15:40.987Z,20.07
2022-10-05T21:18:08.652Z,20.07
2022-10-05T21:20:35.065Z,20.08
2022-10-05T21:23:01.535Z,20.09
2022-10-05T21:25:28.065Z,20.09
2022-10-05T21:27:54.648Z,20.10
2022-10-05T21:30:21.112Z,19.99
2022-10-05T21:32:47.734Z,19.96
2022-10-05T21:35:15.496Z,19.97
2022-10-05T21:37:42.020Z,20.01
2022-10-05T21:40:08.825Z,20.03
2022-10-05T21:42:35.274Z,20.03
2022-10-05T21:45:01.589Z,20.03
2022-10-05T21:47:28.143Z,20.04
2022-10-05T21:49:54.570Z,20.05
2022-10-05T21:52:22.200Z,20.05
2022-10-05T21:54:48.733Z,19.98
2022-10-05T21:57:15.120Z,19.90
2022-10-05T21:59:41.494Z,19.92
2022-10-05T22:02:07.956Z,19.95
2022-10-05T22:04:34.458Z,19.96
2022-10-05T22:07:00.820Z,19.96
2022-10-05T22:09:28.550Z,19.96
2022-10-05T22:11:54.932Z,19.97
2022-10-05T22:14:21.392Z,19.97
2022-10-05T22:16:47.896Z,19.98
2022-10-05T22:19:17.705Z,19.96
2022-10-05T22:21:44.097Z,19.92
2022-10-05T22:24:10.668Z,19.91
2022-10-05T22:26:38.753Z,19.94
2022-10-05T22:29:05.199Z,19.94
2022-10-05T22:31:31.585Z,19.95
2022-10-05T22:33:57.980Z,19.96
2022-10-05T22:36:24.614Z,19.97
2022-10-05T22:38:50.946Z,19.97
2022-10-05T22:41:17.398Z,19.97
2022-10-05T22:43:46.391Z,19.95
2022-10-05T22:46:13.328Z,19.84
2022-10-05T22:48:40.157Z,19.88
2022-10-05T22:51:06.781Z,19.90
2022-10-05T22:53:33.137Z,19.91
2022-10-05T22:56:03.443Z,19.92
2022-10-05T22:58:30.134Z,19.93
2022-10-05T23:01:00.979Z,19.94
2022-10-05T23:03:27.390Z,19.92
2022-10-05T23:05:57.071Z,19.94
2022-10-05T23:08:23.537Z,19.94
2022-10-05T23:10:49.832Z,19.88
2022-10-05T23:13:16.268Z,19.83
2022-10-05T23:15:42.609Z,19.84
2022-10-05T23:18:11.029Z,19.88
2022-10-05T23:20:37.347Z,19.89
2022-10-05T23:23:03.662Z,19.91
2022-10-05T23:25:29.994Z,19.91
2022-10-05T23:27:56.380Z,19.92
2022-10-05T23:30:22.737Z,19.92
2022-10-05T23:32:49.106Z,19.92
2022-10-05T23:35:16.720Z,19.88
2022-10-05T23:37:43.954Z,19.76
2022-10-05T23:40:11.462Z,19.81
2022-10-05T23:42:38.056Z,19.83
2022-10-05T23:45:04.660Z,19.84
2022-10-05T23:47:31.013Z,19.87
2022-10-05T23:49:57.387Z,19.87
2022-10-05T23:52:25.029Z,19.88
2022-10-05T23:54:51.380Z,19.89
2022-10-05T23:57:18.123Z,19.88
2022-10-05T23:59:44.585Z,19.88
